createdAt,value
2018-07-11T00:02:15.582Z,5.33
2018-07-11T00:04:44.084Z,5.77
2018-07-11T00:07:12.906Z,5.70
2018-07-11T00:09:41.328Z,5.80
2018-07-11T00:12:09.756Z,6.40
2018-07-11T00:14:38.192Z,5.30
2018-07-11T00:17:10.800Z,5.27
2018-07-11T00:19:39.322Z,5.10
2018-07-11T00:22:07.805Z,4.90
2018-07-11T00:24:36.239Z,5.07
2018-07-11T00:27:04.879Z,4.97
2018-07-11T00:29:34.276Z,5.30
2018-07-11T00:32:02.780Z,5.27
2018-07-11T00:34:31.248Z,4.80
2018-07-11T00:36:59.724Z,4.70
2018-07-11T00:39:28.279Z,4.90
2018-07-11T00:41:56.728Z,5.03
2018-07-11T00:44:25.207Z,5.77
2018-07-11T00:46:53.700Z,5.90
2018-07-11T00:49:22.227Z,6.70
2018-07-11T00:51:50.763Z,6.43
2018-07-11T00:54:19.546Z,5.13
2018-07-11T00:56:48.016Z,6.13
2018-07-11T00:59:28.404Z,5.03
2018-07-11T01:02:05.632Z,5.73
2018-07-11T01:04:34.315Z,5.67
2018-07-11T01:07:04.584Z,5.60
2018-07-11T01:09:37.443Z,5.60
2018-07-11T01:12:06.404Z,5.77
2018-07-11T01:14:34.953Z,5.93
2018-07-11T01:17:07.304Z,6.23
2018-07-11T01:19:36.439Z,6.13
2018-07-11T01:22:04.864Z,5.67
2018-07-11T01:24:33.503Z,5.53
2018-07-11T01:27:02.202Z,5.10
2018-07-11T01:29:30.599Z,5.20
2018-07-11T01:31:59.073Z,5.07
2018-07-11T01:34:27.506Z,5.83
2018-07-11T01:36:56.205Z,6.27
2018-07-11T01:39:24.665Z,5.07
2018-07-11T01:41:53.134Z,4.70
2018-07-11T01:44:21.603Z,5.90
2018-07-11T01:46:51.293Z,4.93
2018-07-11T01:49:19.743Z,4.60
2018-07-11T01:51:59.464Z,4.67
2018-07-11T01:54:28.679Z,5.00
2018-07-11T01:56:57.145Z,5.53
2018-07-11T01:59:28.775Z,6.20
2018-07-11T02:01:57.231Z,5.97
2018-07-11T02:04:25.735Z,6.50
2018-07-11T02:06:54.184Z,5.47
2018-07-11T02:09:22.667Z,6.00
2018-07-11T02:11:51.129Z,6.23
2018-07-11T02:14:19.580Z,6.07
2018-07-11T02:16:48.120Z,6.43
2018-07-11T02:19:19.128Z,6.10
2018-07-11T02:21:48.476Z,5.90
2018-07-11T02:24:17.052Z,6.47
2018-07-11T02:26:45.464Z,6.53
2018-07-11T02:29:13.944Z,6.30
2018-07-11T02:31:42.480Z,5.80
2018-07-11T02:34:10.974Z,6.20
2018-07-11T02:36:39.377Z,6.80
2018-07-11T02:39:07.783Z,6.63
2018-07-11T02:41:36.195Z,6.20
2018-07-11T02:44:04.357Z,6.87
2018-07-11T02:46:38.197Z,6.77
2018-07-11T02:49:06.801Z,6.40
2018-07-11T02:51:35.287Z,6.33
2018-07-11T02:54:03.743Z,8.30
2018-07-11T02:56:32.141Z,8.20
2018-07-11T02:59:00.705Z,6.90
2018-07-11T03:01:29.167Z,6.40
2018-07-11T03:03:57.630Z,6.40
2018-07-11T03:06:26.216Z,6.60
2018-07-11T03:08:54.655Z,6.70
2018-07-11T03:11:23.077Z,7.10
2018-07-11T03:13:51.515Z,7.83
2018-07-11T03:16:20.017Z,8.07
2018-07-11T03:18:48.418Z,9.13
2018-07-11T03:21:16.964Z,9.43
2018-07-11T03:23:45.422Z,7.77
2018-07-11T03:26:14.001Z,7.20
2018-07-11T03:28:42.456Z,8.83
2018-07-11T03:31:10.860Z,9.20
2018-07-11T03:33:39.295Z,7.13
2018-07-11T03:36:07.756Z,8.03
2018-07-11T03:38:36.223Z,7.93
2018-07-11T03:41:04.699Z,7.13
2018-07-11T03:43:33.143Z,7.53
2018-07-11T03:46:01.774Z,8.60
2018-07-11T03:48:30.400Z,10.00
2018-07-11T03:50:58.830Z,7.70
2018-07-11T03:53:27.272Z,9.03
2018-07-11T03:55:55.773Z,8.13
2018-07-11T03:58:24.217Z,9.50
2018-07-11T04:00:53.773Z,9.57
2018-07-11T04:03:22.385Z,10.37
2018-07-11T04:05:50.798Z,10.10
2018-07-11T04:08:19.200Z,10.10
2018-07-11T04:10:47.624Z,10.50
2018-07-11T04:13:17.720Z,13.03
2018-07-11T04:15:46.413Z,14.30
2018-07-11T04:18:20.864Z,13.70
2018-07-11T04:20:49.028Z,12.63
2018-07-11T04:23:17.445Z,12.70
2018-07-11T04:25:45.996Z,11.30
2018-07-11T04:28:14.404Z,11.40
2018-07-11T04:30:43.620Z,11.60
2018-07-11T04:33:12.156Z,12.10
2018-07-11T04:35:40.642Z,14.27
2018-07-11T04:38:09.130Z,12.97
2018-07-11T04:40:37.707Z,13.60
2018-07-11T04:43:06.452Z,13.43
2018-07-11T04:45:35.017Z,14.57
2018-07-11T04:48:03.720Z,15.30
2018-07-11T04:50:32.288Z,16.00
2018-07-11T04:53:02.019Z,14.30
2018-07-11T04:55:31.083Z,15.43
2018-07-11T04:57:59.552Z,11.80
2018-07-11T05:00:28.024Z,12.83
2018-07-11T05:02:56.874Z,12.77
2018-07-11T05:05:25.560Z,14.00
2018-07-11T05:07:54.220Z,16.30
2018-07-11T05:10:22.844Z,13.47
2018-07-11T05:12:51.241Z,14.90
2018-07-11T05:15:19.768Z,14.50
2018-07-11T05:17:48.177Z,16.83
2018-07-11T05:20:16.620Z,14.70
2018-07-11T05:22:45.117Z,16.97
2018-07-11T05:25:13.559Z,15.40
2018-07-11T05:27:41.963Z,12.10
2018-07-11T05:30:10.421Z,16.60
2018-07-11T05:32:38.820Z,14.87
2018-07-11T05:35:07.298Z,16.23
2018-07-11T05:37:36.646Z,16.13
2018-07-11T05:40:05.216Z,16.80
2018-07-11T05:42:33.720Z,17.47
2018-07-11T05:45:02.317Z,17.90
2018-07-11T05:47:30.818Z,18.10
2018-07-11T05:49:59.307Z,20.80
2018-07-11T05:52:27.775Z,18.40
2018-07-11T05:54:56.170Z,20.37
2018-07-11T05:57:24.587Z,19.93
2018-07-11T05:59:53.906Z,17.93
2018-07-11T06:02:22.326Z,20.80
2018-07-11T06:04:50.886Z,23.63
2018-07-11T06:07:19.428Z,24.07
2018-07-11T06:09:47.880Z,22.90
2018-07-11T06:12:16.328Z,22.30
2018-07-11T06:14:44.826Z,25.43
2018-07-11T06:17:13.234Z,24.00
2018-07-11T06:19:41.636Z,23.57
2018-07-11T06:22:10.073Z,24.63
2018-07-11T06:24:38.496Z,24.37
2018-07-11T06:27:07.024Z,24.43
2018-07-11T06:29:35.440Z,26.67
2018-07-11T06:32:04.486Z,25.03
2018-07-11T06:34:32.961Z,25.17
2018-07-11T06:37:01.413Z,24.77
2018-07-11T06:39:29.563Z,24.73
2018-07-11T06:41:58.120Z,23.40
2018-07-11T06:44:26.677Z,22.97
2018-07-11T06:46:55.119Z,24.13
2018-07-11T06:49:23.581Z,22.33
2018-07-11T06:51:52.053Z,22.70
2018-07-11T06:54:20.564Z,23.30
2018-07-11T06:56:48.968Z,23.30
2018-07-11T06:59:17.916Z,22.07
2018-07-11T07:01:46.340Z,23.67
2018-07-11T07:04:14.816Z,21.73
2018-07-11T07:06:43.210Z,22.00
2018-07-11T07:09:11.682Z,22.57
2018-07-11T07:11:40.180Z,19.63
2018-07-11T07:14:08.673Z,19.50
2018-07-11T07:16:37.176Z,20.00
2018-07-11T07:19:05.784Z,19.53
2018-07-11T07:21:34.245Z,22.53
2018-07-11T07:24:02.659Z,21.57
2018-07-11T07:26:31.122Z,23.90
2018-07-11T07:28:59.579Z,21.43
2018-07-11T07:31:27.975Z,24.00
2018-07-11T07:33:56.388Z,21.03
2018-07-11T07:36:24.808Z,22.10
2018-07-11T07:38:53.328Z,21.27
2018-07-11T07:41:21.765Z,24.00
2018-07-11T07:43:50.237Z,21.80
2018-07-11T07:46:18.778Z,19.00
2018-07-11T07:48:47.328Z,20.77
2018-07-11T07:51:15.984Z,21.43
2018-07-11T07:53:44.466Z,21.07
2018-07-11T07:56:12.938Z,20.97
2018-07-11T07:58:41.416Z,21.10
2018-07-11T08:01:09.904Z,19.77
2018-07-11T08:03:38.590Z,20.63
2018-07-11T08:06:07.004Z,19.90
2018-07-11T08:08:35.417Z,18.60
2018-07-11T08:11:04.029Z,21.33
2018-07-11T08:13:32.568Z,20.10
2018-07-11T08:16:01.720Z,18.67
2018-07-11T08:18:30.180Z,19.87
2018-07-11T08:20:58.815Z,19.80
2018-07-11T08:23:40.551Z,21.40
2018-07-11T08:26:20.527Z,21.10
2018-07-11T08:29:03.644Z,20.57
2018-07-11T08:31:50.853Z,19.20
2018-07-11T08:34:36.017Z,18.93
2018-07-11T08:37:18.694Z,21.30
2018-07-11T08:41:03.076Z,21.33
2018-07-11T08:44:11.034Z,20.57
2018-07-11T08:47:21.844Z,18.70
2018-07-11T08:52:04.786Z,16.20
2018-07-11T08:56:47.136Z,15.53
2018-07-11T09:01:34.003Z,15.93
2018-07-11T09:06:16.037Z,16.23
2018-07-11T09:08:54.087Z,15.40
2018-07-11T09:12:36.360Z,13.23
2018-07-11T09:17:15.936Z,15.03
2018-07-11T09:19:54.636Z,13.80
2018-07-11T09:23:36.073Z,14.17
2018-07-11T09:26:05.164Z,12.87
2018-07-11T09:28:33.562Z,14.80
2018-07-11T09:31:02.007Z,15.20
2018-07-11T09:33:30.494Z,14.53
2018-07-11T09:35:58.964Z,13.37
2018-07-11T09:38:27.391Z,12.00
2018-07-11T09:40:55.947Z,10.33
2018-07-11T09:43:24.398Z,11.87
2018-07-11T09:45:52.959Z,11.57
2018-07-11T09:48:21.489Z,9.83
2018-07-11T09:50:50.155Z,9.60
2018-07-11T09:53:18.703Z,8.40
2018-07-11T09:55:47.153Z,9.10
2018-07-11T09:58:15.743Z,8.97
2018-07-11T10:00:49.533Z,7.47
2018-07-11T10:03:18.641Z,8.03
2018-07-11T10:05:47.111Z,8.80
2018-07-11T10:08:16.065Z,8.23
2018-07-11T10:10:44.663Z,8.40
2018-07-11T10:13:19.960Z,6.73
2018-07-11T10:15:48.366Z,6.97
2018-07-11T10:18:16.811Z,6.77
2018-07-11T10:20:45.302Z,6.30
2018-07-11T10:23:13.776Z,6.70
2018-07-11T10:25:44.088Z,6.43
2018-07-11T10:28:18.616Z,7.73
2018-07-11T10:30:47.208Z,7.60
2018-07-11T10:33:15.643Z,9.33
2018-07-11T10:35:44.116Z,8.33
2018-07-11T10:38:13.401Z,7.50
2018-07-11T10:40:41.891Z,7.50
2018-07-11T10:43:10.623Z,8.33
2018-07-11T10:45:39.476Z,7.00
2018-07-11T10:48:08.182Z,9.03
2018-07-11T10:50:36.736Z,8.60
2018-07-11T10:53:05.336Z,8.00
2018-07-11T10:55:33.748Z,8.43
2018-07-11T10:58:02.314Z,6.87
2018-07-11T11:00:36.663Z,6.60
2018-07-11T11:02:59.694Z,5.80
2018-07-11T11:05:28.171Z,6.03
2018-07-11T11:07:56.591Z,7.60
2018-07-11T11:10:25.964Z,6.40
2018-07-11T11:12:54.436Z,7.80
2018-07-11T11:15:22.916Z,7.37
2018-07-11T11:17:51.302Z,8.00
2018-07-11T11:20:19.722Z,8.63
2018-07-11T11:22:48.211Z,7.77
2018-07-11T11:25:16.756Z,7.93
2018-07-11T11:27:45.246Z,8.10
2018-07-11T11:30:13.658Z,7.93
2018-07-11T11:32:42.158Z,8.07
2018-07-11T11:35:10.671Z,11.77
2018-07-11T11:37:39.241Z,11.70
2018-07-11T11:40:07.670Z,8.00
2018-07-11T11:42:36.541Z,7.93
2018-07-11T11:45:05.040Z,7.90
2018-07-11T11:47:34.328Z,7.50
2018-07-11T11:50:02.773Z,6.73
2018-07-11T11:52:31.184Z,6.57
2018-07-11T11:54:59.656Z,4.40
2018-07-11T11:57:28.199Z,4.10
2018-07-11T11:59:56.648Z,4.17
2018-07-11T12:02:25.180Z,4.00
2018-07-11T12:04:53.765Z,4.13
2018-07-11T12:07:22.221Z,4.10
2018-07-11T12:09:50.677Z,4.00
2018-07-11T12:12:19.168Z,6.40
2018-07-11T12:14:47.600Z,3.73
2018-07-11T12:17:16.109Z,4.37
2018-07-11T12:19:45.213Z,3.77
2018-07-11T12:22:25.077Z,4.60
2018-07-11T12:24:54.236Z,4.20
2018-07-11T12:27:22.726Z,2.73
2018-07-11T12:29:52.434Z,2.77
2018-07-11T12:32:21.280Z,2.80
2018-07-11T12:34:49.763Z,2.70
2018-07-11T12:37:18.846Z,2.53
2018-07-11T12:39:47.689Z,2.40
2018-07-11T12:42:16.228Z,2.70
2018-07-11T12:44:44.926Z,2.47
2018-07-11T12:47:19.324Z,2.50
2018-07-11T12:49:47.860Z,2.80
2018-07-11T12:52:16.417Z,2.40
2018-07-11T12:54:44.980Z,2.27
2018-07-11T12:57:13.575Z,3.10
2018-07-11T12:59:42.079Z,3.70
2018-07-11T13:02:10.963Z,2.70
2018-07-11T13:04:39.445Z,2.40
2018-07-11T13:07:08.165Z,2.27
2018-07-11T13:09:37.701Z,2.10
2018-07-11T13:12:06.818Z,3.10
2018-07-11T13:14:35.515Z,3.53
2018-07-11T13:17:04.042Z,2.10
2018-07-11T13:19:32.425Z,2.30
2018-07-11T13:22:00.845Z,2.23
2018-07-11T13:24:29.263Z,2.40
2018-07-11T13:26:57.740Z,2.27
2018-07-11T13:29:26.285Z,2.57
2018-07-11T13:31:54.877Z,2.63
2018-07-11T13:34:23.327Z,2.23
2018-07-11T13:36:52.783Z,2.57
2018-07-11T13:39:22.318Z,2.40
2018-07-11T13:41:51.552Z,2.57
2018-07-11T13:44:20.084Z,2.53
2018-07-11T13:46:48.694Z,2.73
2018-07-11T13:49:17.096Z,3.03
2018-07-11T13:51:45.788Z,3.17
2018-07-11T13:54:14.085Z,3.20
2018-07-11T13:56:42.562Z,3.00
2018-07-11T13:59:11.045Z,3.30
2018-07-11T14:01:39.508Z,3.70
2018-07-11T14:04:08.079Z,3.03
2018-07-11T14:06:36.621Z,2.60
2018-07-11T14:09:05.149Z,2.40
2018-07-11T14:11:33.641Z,3.40
2018-07-11T14:14:02.690Z,2.83
2018-07-11T14:16:31.137Z,2.77
2018-07-11T14:18:59.598Z,8.20
2018-07-11T14:21:28.029Z,3.03
2018-07-11T14:23:57.912Z,3.23
2018-07-11T14:26:27.412Z,3.00
2018-07-11T14:28:55.850Z,3.60
2018-07-11T14:31:30.277Z,3.20
2018-07-11T14:34:01.205Z,2.97
2018-07-11T14:36:29.655Z,2.70
2018-07-11T14:38:58.180Z,3.40
2018-07-11T14:41:26.693Z,2.77
2018-07-11T14:43:57.364Z,2.97
2018-07-11T14:46:27.377Z,3.03
2018-07-11T14:48:55.834Z,3.30
2018-07-11T14:51:24.568Z,4.20
2018-07-11T14:53:54.276Z,3.40
2018-07-11T14:56:22.829Z,4.00
2018-07-11T14:58:53.677Z,3.57
2018-07-11T15:01:22.728Z,3.40
2018-07-11T15:03:51.274Z,3.50
2018-07-11T15:06:20.014Z,3.80
2018-07-11T15:08:48.827Z,3.80
2018-07-11T15:11:17.285Z,3.47
2018-07-11T15:13:45.947Z,4.03
2018-07-11T15:16:15.301Z,4.20
2018-07-11T15:18:43.771Z,5.13
2018-07-11T15:21:12.735Z,5.10
2018-07-11T15:23:41.189Z,5.57
2018-07-11T15:26:09.692Z,6.07
2018-07-11T15:28:38.238Z,5.87
2018-07-11T15:31:06.887Z,6.17
2018-07-11T15:33:35.429Z,6.20
2018-07-11T15:36:03.871Z,7.27
2018-07-11T15:38:32.389Z,7.30
2018-07-11T15:41:01.565Z,8.40
2018-07-11T15:43:30.597Z,8.50
2018-07-11T15:45:59.770Z,7.50
2018-07-11T15:48:28.669Z,7.90
2018-07-11T15:50:57.374Z,8.90
2018-07-11T15:53:28.985Z,7.67
2018-07-11T15:55:57.511Z,7.83
2018-07-11T15:58:27.479Z,8.83
2018-07-11T16:01:00.007Z,7.60
2018-07-11T16:03:28.481Z,7.97
2018-07-11T16:05:57.064Z,7.60
2018-07-11T16:08:25.435Z,6.70
2018-07-11T16:10:57.401Z,7.90
2018-07-11T16:13:25.801Z,7.20
2018-07-11T16:15:54.377Z,6.60
2018-07-11T16:18:22.890Z,8.60
2018-07-11T16:20:51.897Z,7.67
2018-07-11T16:23:20.331Z,8.60
2018-07-11T16:25:48.803Z,8.90
2018-07-11T16:28:17.313Z,8.77
2018-07-11T16:30:45.767Z,10.17
2018-07-11T16:33:14.275Z,11.77
2018-07-11T16:35:42.664Z,9.50
2018-07-11T16:38:11.265Z,8.90
2018-07-11T16:40:39.693Z,12.80
2018-07-11T16:43:08.149Z,12.30
2018-07-11T16:45:37.115Z,9.50
2018-07-11T16:48:05.631Z,9.83
2018-07-11T16:50:35.259Z,8.30
2018-07-11T16:53:04.612Z,8.30
2018-07-11T16:55:34.981Z,9.10
2018-07-11T16:58:03.506Z,9.07
2018-07-11T17:00:33.695Z,9.63
2018-07-11T17:03:06.611Z,8.23
2018-07-11T17:06:03.469Z,8.60
2018-07-11T17:08:33.284Z,9.10
2018-07-11T17:11:08.099Z,8.47
2018-07-11T17:13:36.785Z,8.20
2018-07-11T17:16:05.405Z,8.50
2018-07-11T17:18:45.151Z,9.80
2018-07-11T17:21:23.460Z,10.13
2018-07-11T17:23:55.171Z,11.07
2018-07-11T17:26:25.976Z,16.90
2018-07-11T17:28:56.224Z,24.70
2018-07-11T17:31:24.998Z,62.80
2018-07-11T17:33:53.453Z,70.53
2018-07-11T17:36:22.015Z,107.50
2018-07-11T17:38:50.630Z,52.70
2018-07-11T17:41:19.098Z,59.57
2018-07-11T17:43:52.079Z,45.10
2018-07-11T17:46:21.789Z,60.43
2018-07-11T17:49:06.481Z,112.23
2018-07-11T17:51:46.381Z,82.80
2018-07-11T17:54:14.944Z,61.47
2018-07-11T17:56:52.323Z,32.33
2018-07-11T18:01:31.498Z,53.77
2018-07-11T18:04:15.186Z,27.03
2018-07-11T18:07:02.291Z,34.77
2018-07-11T18:10:08.652Z,39.90
2018-07-11T18:12:52.330Z,27.30
2018-07-11T18:15:49.824Z,38.90
2018-07-11T18:19:39.370Z,55.37
2018-07-11T18:22:21.722Z,33.90
2018-07-11T18:24:57.876Z,27.60
2018-07-11T18:28:34.774Z,29.17
2018-07-11T18:31:13.252Z,21.17
2018-07-11T18:35:14.252Z,23.37
2018-07-11T18:37:52.290Z,32.70
2018-07-11T18:40:41.452Z,24.07
2018-07-11T18:45:27.404Z,22.43
2018-07-11T18:48:25.557Z,21.47
2018-07-11T18:51:02.521Z,26.67
2018-07-11T18:53:48.088Z,26.40
2018-07-11T18:56:28.303Z,20.83
2018-07-11T18:59:09.553Z,19.50
2018-07-11T19:03:54.889Z,23.63
2018-07-11T19:06:31.802Z,24.77
2018-07-11T19:09:06.579Z,24.60
2018-07-11T19:12:48.804Z,21.57
2018-07-11T19:16:25.389Z,23.60
2018-07-11T19:19:03.660Z,19.23
2018-07-11T19:21:41.187Z,16.07
2018-07-11T19:24:16.580Z,15.80
2018-07-11T19:26:53.925Z,17.63
2018-07-11T19:30:29.984Z,22.50
2018-07-11T19:33:07.458Z,16.27
2018-07-11T19:35:43.198Z,13.43
2018-07-11T19:38:40.150Z,14.27
2018-07-11T19:41:17.632Z,15.17
2018-07-11T19:43:53.668Z,17.07
2018-07-11T19:46:45.356Z,13.40
2018-07-11T19:49:25.388Z,14.10
2018-07-11T19:52:37.088Z,14.27
2018-07-11T19:57:13.562Z,25.40
2018-07-11T19:59:42.132Z,39.20
2018-07-11T20:02:11.014Z,33.93
2018-07-11T20:04:39.420Z,34.00
2018-07-11T20:07:08.374Z,29.30
2018-07-11T20:09:36.822Z,19.50
2018-07-11T20:12:05.828Z,16.00
2018-07-11T20:14:34.276Z,15.60
2018-07-11T20:17:03.208Z,14.63
2018-07-11T20:19:31.656Z,16.37
2018-07-11T20:22:00.110Z,15.43
2018-07-11T20:24:28.836Z,13.57
2018-07-11T20:26:57.771Z,15.30
2018-07-11T20:29:26.272Z,13.77
2018-07-11T20:31:54.834Z,14.83
2018-07-11T20:34:23.316Z,14.60
2018-07-11T20:36:51.826Z,17.93
2018-07-11T20:39:20.648Z,17.53
2018-07-11T20:41:49.217Z,16.07
2018-07-11T20:44:17.684Z,15.47
2018-07-11T20:46:46.725Z,15.10
2018-07-11T20:49:22.718Z,14.70
2018-07-11T20:51:51.861Z,15.60
2018-07-11T20:54:20.382Z,16.50
2018-07-11T20:56:48.768Z,15.77
2018-07-11T20:59:28.512Z,15.20
2018-07-11T21:02:11.048Z,18.30
2018-07-11T21:07:03.580Z,17.63
2018-07-11T21:10:45.680Z,16.27
2018-07-11T21:15:29.570Z,16.93
2018-07-11T21:19:06.680Z,16.60
2018-07-11T21:21:35.986Z,17.77
2018-07-11T21:24:05.318Z,18.27
2018-07-11T21:26:33.794Z,19.60
2018-07-11T21:29:02.208Z,21.27
2018-07-11T21:31:30.757Z,22.67
2018-07-11T21:33:59.198Z,22.87
2018-07-11T21:36:27.637Z,26.60
2018-07-11T21:38:56.078Z,24.27
2018-07-11T21:41:24.573Z,22.83
2018-07-11T21:43:53.025Z,23.30
2018-07-11T21:46:21.792Z,23.37
2018-07-11T21:48:50.236Z,22.97
2018-07-11T21:51:18.699Z,24.60
2018-07-11T21:53:47.100Z,25.97
2018-07-11T21:56:15.578Z,25.90
2018-07-11T21:58:43.992Z,23.13
2018-07-11T22:01:13.028Z,24.73
2018-07-11T22:03:41.524Z,26.37
2018-07-11T22:06:09.975Z,27.90
2018-07-11T22:08:38.422Z,32.20
2018-07-11T22:11:07.150Z,30.00
2018-07-11T22:13:35.572Z,27.97
2018-07-11T22:16:04.024Z,28.97
2018-07-11T22:18:35.816Z,27.60
2018-07-11T22:21:04.121Z,27.10
2018-07-11T22:23:31.515Z,27.83
2018-07-11T22:25:59.035Z,26.57
2018-07-11T22:28:26.340Z,28.37
2018-07-11T22:30:53.618Z,25.37
2018-07-11T22:33:20.969Z,26.87
2018-07-11T22:35:48.322Z,25.60
2018-07-11T22:38:15.640Z,27.37
2018-07-11T22:40:43.676Z,27.77
2018-07-11T22:43:11.072Z,26.77
2018-07-11T22:45:38.353Z,29.80
2018-07-11T22:48:05.650Z,30.87
2018-07-11T22:50:33.034Z,31.17
2018-07-11T22:53:00.347Z,31.83
2018-07-11T22:55:27.671Z,29.00
2018-07-11T22:57:55.004Z,31.57
2018-07-11T23:00:22.309Z,29.83
2018-07-11T23:02:49.591Z,28.77
2018-07-11T23:05:16.924Z,28.33
2018-07-11T23:07:44.229Z,28.20
2018-07-11T23:10:12.407Z,28.80
2018-07-11T23:12:39.788Z,28.60
2018-07-11T23:15:07.091Z,30.30
2018-07-11T23:17:34.459Z,27.67
2018-07-11T23:20:01.738Z,28.03
2018-07-11T23:22:29.073Z,26.60
2018-07-11T23:24:56.374Z,27.17
2018-07-11T23:27:23.778Z,28.73
2018-07-11T23:29:51.092Z,27.33
2018-07-11T23:32:18.419Z,27.83
2018-07-11T23:34:45.716Z,27.97
2018-07-11T23:37:13.046Z,29.10
2018-07-11T23:39:40.326Z,27.73
2018-07-11T23:42:07.655Z,28.50
2018-07-11T23:44:34.964Z,30.40
2018-07-11T23:47:02.253Z,30.57
2018-07-11T23:49:29.571Z,31.47
2018-07-11T23:51:56.920Z,32.27
2018-07-11T23:54:24.224Z,31.50
2018-07-11T23:56:51.841Z,31.60
2018-07-11T23:59:20.381Z,35.27
